»·PEaware :: N77DK KWHP-KMYF

N77DK :: KWHP-KMYF

FLIGHT INFORMATION

Flight Status: Arrived
Operator: Privately registered:
United States
More flights under this callsign
Pilot: Eugenio Joel D. (45026)
Aircraft: Unknown
(172S)
More flights by this aircraft type
Origin: KWHP Whiteman
United States
Destination: KMYF Montgomery
United States
More flights between these airports :: More routes between these airports
Route: SMO PIJIN BOKNE TORIE GIMPE
File this flight plan on PilotEdge
Remarks:
Altitude:
(Current/Filed)
5,500ft
Speed:
(Current/Filed)
110kts
Departed: 19-Nov-23 04:10 PM
Arrived: 19-Nov-23 05:18 PM
Distance/Time
Traveled:
107nm/1:07
Distance/Time
To Go:
Arrived

Flight Plot

Page will automatically refresh every two minutes.

Flight plan parsing failed; only flown route is shown


Map Options




Map Legend


Flown Route
Filed Route
Departure Airport
Arrival Airport
Navaid (VOR, NDB)
Fix

Horizontal Profiles

Position Reports

Time Latitude Longitude Heading Altitude Ground
Speed
19-Nov-23 15:53 34.260877 -118.412264 232 1003ft 0kts
19-Nov-23 15:54 34.260877 -118.412264 232 1003ft 0kts
19-Nov-23 15:55 34.260877 -118.412264 232 1003ft 0kts
19-Nov-23 15:56 34.260877 -118.412264 232 1003ft 0kts
19-Nov-23 15:57 34.260877 -118.412264 232 1003ft 0kts
19-Nov-23 15:58 34.260877 -118.412264 232 1003ft 0kts
19-Nov-23 15:59 34.260877 -118.412264 232 1003ft 0kts
19-Nov-23 16:00 34.260877 -118.412264 232 1003ft 0kts
19-Nov-23 16:01 34.260373 -118.412960 228 1001ft 7kts
19-Nov-23 16:02 34.258201 -118.411650 139 1002ft 11kts
19-Nov-23 16:03 34.256760 -118.409933 190 998ft 0kts
19-Nov-23 16:04 34.256676 -118.409950 184 999ft 4kts
19-Nov-23 16:05 34.255596 -118.408911 150 997ft 0kts
19-Nov-23 16:06 34.255596 -118.408911 150 997ft 0kts
19-Nov-23 16:07 34.255596 -118.408911 150 997ft 0kts
19-Nov-23 16:08 34.255596 -118.408911 150 997ft 0kts
19-Nov-23 16:09 34.257886 -118.411964 321 1004ft 66kts
19-Nov-23 16:10 34.275518 -118.429931 319 1817ft 77kts
19-Nov-23 16:11 34.292727 -118.447144 320 2511ft 97kts
19-Nov-23 16:12 34.319049 -118.468121 330 2879ft 96kts
19-Nov-23 16:13 34.311891 -118.462758 191 3513ft 96kts
19-Nov-23 16:14 34.280365 -118.462633 180 3509ft 121kts
19-Nov-23 16:15 34.246771 -118.461875 180 3503ft 116kts
19-Nov-23 16:17 34.214856 -118.461174 180 3433ft 114kts
19-Nov-23 16:18 34.183401 -118.460480 180 3427ft 112kts
19-Nov-23 16:19 34.152219 -118.459752 180 3426ft 111kts
19-Nov-23 16:20 34.121195 -118.459112 180 3425ft 111kts
19-Nov-23 16:21 34.090196 -118.458432 180 3424ft 111kts
19-Nov-23 16:22 34.059139 -118.457765 180 3427ft 112kts
19-Nov-23 16:23 34.027987 -118.456035 183 3427ft 111kts
19-Nov-23 16:24 33.999256 -118.446735 145 3420ft 112kts
19-Nov-23 16:25 33.973768 -118.424792 151 3424ft 112kts
19-Nov-23 16:26 33.946550 -118.405973 153 3425ft 112kts
19-Nov-23 16:27 33.921126 -118.383679 143 3422ft 113kts
19-Nov-23 16:28 33.896341 -118.360492 143 3422ft 113kts
19-Nov-23 16:29 33.870300 -118.345372 210 3430ft 108kts
19-Nov-23 16:30 33.844637 -118.327642 143 3430ft 112kts
19-Nov-23 16:31 33.819920 -118.304522 143 3433ft 112kts
19-Nov-23 16:32 33.797417 -118.278311 131 3430ft 113kts
19-Nov-23 16:33 33.777006 -118.249495 131 3431ft 113kts
19-Nov-23 16:34 33.758768 -118.223617 131 4056ft 92kts
19-Nov-23 16:35 33.742135 -118.200205 131 4818ft 92kts
19-Nov-23 16:36 33.725072 -118.176279 132 5432ft 106kts
19-Nov-23 16:37 33.703712 -118.146523 131 5434ft 118kts
19-Nov-23 16:38 33.682199 -118.116362 131 5436ft 119kts
19-Nov-23 16:39 33.660677 -118.086218 131 5433ft 117kts
19-Nov-23 16:40 33.639626 -118.056747 131 5429ft 116kts
19-Nov-23 16:41 33.618536 -118.027247 131 5428ft 115kts
19-Nov-23 16:42 33.597556 -117.997923 131 5428ft 116kts
19-Nov-23 16:42 33.580044 -117.973471 131 5428ft 116kts
19-Nov-23 16:43 33.559098 -117.944239 132 5428ft 116kts
19-Nov-23 16:45 33.534542 -117.910004 132 5429ft 115kts
19-Nov-23 16:46 33.512742 -117.879634 132 5436ft 122kts
19-Nov-23 16:47 33.490397 -117.848542 131 5436ft 123kts
19-Nov-23 16:47 33.471805 -117.822691 132 5435ft 123kts
19-Nov-23 16:48 33.449391 -117.791542 132 5435ft 123kts
19-Nov-23 16:49 33.427050 -117.760524 132 5435ft 123kts
19-Nov-23 16:51 33.400944 -117.724313 132 5436ft 123kts
19-Nov-23 16:52 33.378509 -117.693224 132 5436ft 123kts
19-Nov-23 16:52 33.359834 -117.667364 132 5436ft 123kts
19-Nov-23 16:53 33.337450 -117.636395 132 5435ft 123kts
19-Nov-23 16:54 33.315075 -117.605464 132 5435ft 123kts
19-Nov-23 16:55 33.292662 -117.574504 132 5436ft 123kts
19-Nov-23 16:56 33.270197 -117.543507 132 5426ft 123kts
19-Nov-23 16:57 33.242452 -117.520819 155 5428ft 122kts
19-Nov-23 16:58 33.211937 -117.502726 155 5425ft 122kts
19-Nov-23 16:59 33.181379 -117.484621 155 5418ft 122kts
19-Nov-23 17:00 33.150908 -117.466580 155 5425ft 122kts
19-Nov-23 17:01 33.120217 -117.448428 155 5417ft 123kts
19-Nov-23 17:02 33.089644 -117.430354 155 5416ft 122kts
19-Nov-23 17:03 33.059017 -117.412266 155 5415ft 122kts
19-Nov-23 17:04 33.028494 -117.394252 155 5417ft 122kts
19-Nov-23 17:05 32.997877 -117.376196 155 5413ft 122kts
19-Nov-23 17:06 32.967851 -117.357160 146 5408ft 122kts
19-Nov-23 17:07 32.938993 -117.333673 147 5037ft 133kts
19-Nov-23 17:08 32.908837 -117.309025 146 4119ft 131kts
19-Nov-23 17:09 32.879001 -117.284618 146 3438ft 129kts
19-Nov-23 17:10 32.851235 -117.265017 166 3396ft 107kts
19-Nov-23 17:11 32.823374 -117.255740 166 3399ft 103kts
19-Nov-23 17:12 32.812363 -117.228470 90 3231ft 105kts
19-Nov-23 17:13 32.808365 -117.192508 100 2685ft 106kts
19-Nov-23 17:14 32.803857 -117.161172 100 1944ft 89kts
19-Nov-23 17:15 32.797374 -117.133574 113 1222ft 83kts
19-Nov-23 17:16 32.808826 -117.126019 304 716ft 77kts
19-Nov-23 17:17 32.815373 -117.141493 293 422ft 21kts
19-Nov-23 17:18 32.814818 -117.142170 174 423ft 8kts
19-Nov-23 17:19 32.814485 -117.142393 218 423ft 0kts
19-Nov-23 17:20 32.814485 -117.142392 218 423ft 0kts
19-Nov-23 17:21 32.814485 -117.142392 218 423ft 0kts
19-Nov-23 17:22 32.814485 -117.142392 218 423ft 0kts
19-Nov-23 17:23 32.814485 -117.142392 218 423ft 0kts
19-Nov-23 17:24 32.814485 -117.142392 218 423ft 0kts
19-Nov-23 17:25 32.814485 -117.142391 218 423ft 0kts
19-Nov-23 17:26 32.814485 -117.142391 218 423ft 0kts
19-Nov-23 17:27 32.814485 -117.142391 218 423ft 0kts
19-Nov-23 17:28 32.814485 -117.142391 218 423ft 0kts
19-Nov-23 17:29 32.814485 -117.142390 218 423ft 0kts
19-Nov-23 17:30 32.814485 -117.142390 218 423ft 0kts
19-Nov-23 17:31 32.814485 -117.142390 218 423ft 0kts

Navigation Log

Ident Type
Flight plan parsing failed, navigation log unavailable